sensor_id;sensor_type;location;lat;lon;timestamp;P1;durP1;ratioP1;P2;durP2;ratioP2
76065;SDS011;64763;48.928;8.474;2023-04-15T00:02:16;3.28;;;1.80;;
76065;SDS011;64763;48.928;8.474;2023-04-15T00:04:45;4.53;;;2.00;;
76065;SDS011;64763;48.928;8.474;2023-04-15T00:07:11;4.97;;;2.72;;
76065;SDS011;64763;48.928;8.474;2023-04-15T00:09:36;6.10;;;2.80;;
76065;SDS011;64763;48.928;8.474;2023-04-15T00:12:02;5.07;;;3.35;;
76065;SDS011;64763;48.928;8.474;2023-04-15T00:14:28;5.30;;;2.78;;
76065;SDS011;64763;48.928;8.474;2023-04-15T00:16:54;6.82;;;2.65;;
76065;SDS011;64763;48.928;8.474;2023-04-15T00:19:21;5.22;;;2.38;;
76065;SDS011;64763;48.928;8.474;2023-04-15T00:21:46;6.22;;;2.80;;
76065;SDS011;64763;48.928;8.474;2023-04-15T00:24:12;5.00;;;2.58;;
76065;SDS011;64763;48.928;8.474;2023-04-15T00:26:37;4.50;;;2.40;;
76065;SDS011;64763;48.928;8.474;2023-04-15T00:29:03;4.55;;;3.05;;
76065;SDS011;64763;48.928;8.474;2023-04-15T00:31:29;5.78;;;3.03;;
76065;SDS011;64763;48.928;8.474;2023-04-15T00:33:54;7.13;;;2.97;;
76065;SDS011;64763;48.928;8.474;2023-04-15T00:36:20;5.15;;;2.80;;
76065;SDS011;64763;48.928;8.474;2023-04-15T00:38:45;6.72;;;3.45;;
76065;SDS011;64763;48.928;8.474;2023-04-15T00:41:11;7.28;;;3.03;;
76065;SDS011;64763;48.928;8.474;2023-04-15T00:43:36;5.30;;;3.53;;
76065;SDS011;64763;48.928;8.474;2023-04-15T00:46:03;6.05;;;2.60;;
76065;SDS011;64763;48.928;8.474;2023-04-15T00:48:29;9.27;;;2.80;;
76065;SDS011;64763;48.928;8.474;2023-04-15T00:50:54;5.85;;;2.70;;
76065;SDS011;64763;48.928;8.474;2023-04-15T00:53:20;5.43;;;2.47;;
76065;SDS011;64763;48.928;8.474;2023-04-15T00:55:45;5.35;;;2.80;;
76065;SDS011;64763;48.928;8.474;2023-04-15T00:58:11;5.80;;;2.92;;
76065;SDS011;64763;48.928;8.474;2023-04-15T01:00:36;5.40;;;2.55;;
76065;SDS011;64763;48.928;8.474;2023-04-15T01:03:01;4.85;;;2.72;;
76065;SDS011;64763;48.928;8.474;2023-04-15T01:05:27;7.85;;;3.13;;
76065;SDS011;64763;48.928;8.474;2023-04-15T01:07:52;6.97;;;3.05;;
76065;SDS011;64763;48.928;8.474;2023-04-15T01:10:19;5.60;;;2.28;;
76065;SDS011;64763;48.928;8.474;2023-04-15T01:12:45;4.82;;;2.63;;
76065;SDS011;64763;48.928;8.474;2023-04-15T01:15:10;5.15;;;2.80;;
76065;SDS011;64763;48.928;8.474;2023-04-15T01:17:36;4.95;;;2.30;;
76065;SDS011;64763;48.928;8.474;2023-04-15T01:20:01;4.30;;;2.45;;
76065;SDS011;64763;48.928;8.474;2023-04-15T01:22:27;4.82;;;2.85;;
76065;SDS011;64763;48.928;8.474;2023-04-15T01:25:05;5.32;;;3.03;;
76065;SDS011;64763;48.928;8.474;2023-04-15T01:27:34;4.50;;;2.20;;
76065;SDS011;64763;48.928;8.474;2023-04-15T01:30:00;7.22;;;2.50;;
76065;SDS011;64763;48.928;8.474;2023-04-15T01:32:27;3.72;;;2.63;;
76065;SDS011;64763;48.928;8.474;2023-04-15T01:34:52;4.22;;;2.35;;
76065;SDS011;64763;48.928;8.474;2023-04-15T01:37:18;6.25;;;2.72;;
76065;SDS011;64763;48.928;8.474;2023-04-15T01:39:43;4.57;;;2.53;;
76065;SDS011;64763;48.928;8.474;2023-04-15T01:42:08;4.68;;;2.67;;
76065;SDS011;64763;48.928;8.474;2023-04-15T01:44:34;3.63;;;2.17;;
76065;SDS011;64763;48.928;8.474;2023-04-15T01:46:59;2.85;;;2.10;;
76065;SDS011;64763;48.928;8.474;2023-04-15T01:49:24;6.32;;;2.75;;
76065;SDS011;64763;48.928;8.474;2023-04-15T01:51:50;8.75;;;2.50;;
76065;SDS011;64763;48.928;8.474;2023-04-15T01:54:15;4.75;;;2.40;;
76065;SDS011;64763;48.928;8.474;2023-04-15T01:56:40;5.55;;;2.42;;
76065;SDS011;64763;48.928;8.474;2023-04-15T01:59:06;5.72;;;2.10;;
76065;SDS011;64763;48.928;8.474;2023-04-15T02:01:31;6.63;;;2.90;;
76065;SDS011;64763;48.928;8.474;2023-04-15T02:03:57;6.63;;;2.22;;
76065;SDS011;64763;48.928;8.474;2023-04-15T02:06:22;3.40;;;2.08;;
76065;SDS011;64763;48.928;8.474;2023-04-15T02:08:48;5.25;;;2.35;;
76065;SDS011;64763;48.928;8.474;2023-04-15T02:11:13;3.65;;;1.95;;
76065;SDS011;64763;48.928;8.474;2023-04-15T02:13:39;5.10;;;2.30;;
76065;SDS011;64763;48.928;8.474;2023-04-15T02:16:13;5.00;;;2.15;;
76065;SDS011;64763;48.928;8.474;2023-04-15T02:18:39;4.47;;;2.00;;
76065;SDS011;64763;48.928;8.474;2023-04-15T02:21:05;5.45;;;2.38;;
76065;SDS011;64763;48.928;8.474;2023-04-15T02:23:31;6.50;;;2.22;;
76065;SDS011;64763;48.928;8.474;2023-04-15T02:25:56;4.25;;;2.40;;
76065;SDS011;64763;48.928;8.474;2023-04-15T02:28:22;2.78;;;1.80;;
76065;SDS011;64763;48.928;8.474;2023-04-15T02:30:47;4.43;;;2.25;;
76065;SDS011;64763;48.928;8.474;2023-04-15T02:33:16;4.40;;;2.83;;
76065;SDS011;64763;48.928;8.474;2023-04-15T02:35:41;4.00;;;1.80;;
76065;SDS011;64763;48.928;8.474;2023-04-15T02:38:09;4.15;;;2.17;;
76065;SDS011;64763;48.928;8.474;2023-04-15T02:40:35;5.45;;;2.30;;
76065;SDS011;64763;48.928;8.474;2023-04-15T02:43:01;5.20;;;2.40;;
76065;SDS011;64763;48.928;8.474;2023-04-15T02:45:26;5.32;;;2.35;;
76065;SDS011;64763;48.928;8.474;2023-04-15T02:47:52;7.10;;;2.38;;
76065;SDS011;64763;48.928;8.474;2023-04-15T02:50:17;5.32;;;2.80;;
76065;SDS011;64763;48.928;8.474;2023-04-15T02:52:43;5.68;;;2.53;;
76065;SDS011;64763;48.928;8.474;2023-04-15T02:55:08;4.80;;;2.63;;
76065;SDS011;64763;48.928;8.474;2023-04-15T02:57:34;5.53;;;2.63;;
76065;SDS011;64763;48.928;8.474;2023-04-15T03:00:02;3.88;;;2.35;;
76065;SDS011;64763;48.928;8.474;2023-04-15T03:02:32;6.75;;;2.40;;
76065;SDS011;64763;48.928;8.474;2023-04-15T03:04:59;6.35;;;2.60;;
76065;SDS011;64763;48.928;8.474;2023-04-15T03:07:24;4.97;;;2.92;;
76065;SDS011;64763;48.928;8.474;2023-04-15T03:09:49;4.72;;;2.33;;
76065;SDS011;64763;48.928;8.474;2023-04-15T03:12:15;6.65;;;2.28;;
76065;SDS011;64763;48.928;8.474;2023-04-15T03:14:40;5.32;;;2.38;;
76065;SDS011;64763;48.928;8.474;2023-04-15T03:17:06;2.95;;;2.25;;
76065;SDS011;64763;48.928;8.474;2023-04-15T03:19:31;4.47;;;2.35;;
76065;SDS011;64763;48.928;8.474;2023-04-15T03:21:57;3.70;;;2.28;;
76065;SDS011;64763;48.928;8.474;2023-04-15T03:24:22;4.82;;;2.83;;
76065;SDS011;64763;48.928;8.474;2023-04-15T03:26:48;6.55;;;3.30;;
76065;SDS011;64763;48.928;8.474;2023-04-15T03:29:14;5.72;;;3.03;;
76065;SDS011;64763;48.928;8.474;2023-04-15T03:31:39;8.52;;;3.45;;
76065;SDS011;64763;48.928;8.474;2023-04-15T03:34:05;8.68;;;4.32;;
76065;SDS011;64763;48.928;8.474;2023-04-15T03:36:30;7.72;;;4.78;;
76065;SDS011;64763;48.928;8.474;2023-04-15T03:38:57;7.47;;;4.38;;
76065;SDS011;64763;48.928;8.474;2023-04-15T03:41:23;7.28;;;3.90;;
76065;SDS011;64763;48.928;8.474;2023-04-15T03:43:48;7.60;;;3.78;;
76065;SDS011;64763;48.928;8.474;2023-04-15T03:46:15;6.63;;;4.00;;
76065;SDS011;64763;48.928;8.474;2023-04-15T03:48:41;8.43;;;3.97;;
76065;SDS011;64763;48.928;8.474;2023-04-15T03:51:06;7.00;;;3.53;;
76065;SDS011;64763;48.928;8.474;2023-04-15T03:53:32;5.30;;;3.25;;
76065;SDS011;64763;48.928;8.474;2023-04-15T03:55:57;6.82;;;3.35;;
76065;SDS011;64763;48.928;8.474;2023-04-15T03:58:22;5.35;;;2.95;;
76065;SDS011;64763;48.928;8.474;2023-04-15T04:00:48;7.45;;;3.22;;
76065;SDS011;64763;48.928;8.474;2023-04-15T04:03:13;10.43;;;2.85;;
76065;SDS011;64763;48.928;8.474;2023-04-15T04:05:38;5.15;;;3.00;;
76065;SDS011;64763;48.928;8.474;2023-04-15T04:08:05;8.15;;;3.33;;
76065;SDS011;64763;48.928;8.474;2023-04-15T04:10:31;6.03;;;2.60;;
76065;SDS011;64763;48.928;8.474;2023-04-15T04:12:56;5.00;;;3.10;;
76065;SDS011;64763;48.928;8.474;2023-04-15T04:15:22;7.18;;;2.85;;
76065;SDS011;64763;48.928;8.474;2023-04-15T04:17:47;6.50;;;2.85;;
76065;SDS011;64763;48.928;8.474;2023-04-15T04:20:12;5.40;;;2.75;;
76065;SDS011;64763;48.928;8.474;2023-04-15T04:22:38;6.35;;;3.25;;
76065;SDS011;64763;48.928;8.474;2023-04-15T04:25:04;6.20;;;3.17;;
76065;SDS011;64763;48.928;8.474;2023-04-15T04:27:31;7.22;;;3.30;;
76065;SDS011;64763;48.928;8.474;2023-04-15T04:29:56;7.18;;;3.42;;
76065;SDS011;64763;48.928;8.474;2023-04-15T04:32:21;5.70;;;3.13;;
76065;SDS011;64763;48.928;8.474;2023-04-15T04:34:47;7.63;;;3.80;;
76065;SDS011;64763;48.928;8.474;2023-04-15T04:37:12;8.25;;;5.22;;
76065;SDS011;64763;48.928;8.474;2023-04-15T04:39:37;11.13;;;4.70;;
76065;SDS011;64763;48.928;8.474;2023-04-15T04:42:03;5.95;;;3.97;;
76065;SDS011;64763;48.928;8.474;2023-04-15T04:44:28;6.10;;;3.17;;
76065;SDS011;64763;48.928;8.474;2023-04-15T04:46:54;8.00;;;3.53;;
76065;SDS011;64763;48.928;8.474;2023-04-15T04:49:19;7.35;;;2.92;;
76065;SDS011;64763;48.928;8.474;2023-04-15T04:51:45;5.85;;;3.33;;
76065;SDS011;64763;48.928;8.474;2023-04-15T04:54:11;4.97;;;2.80;;
76065;SDS011;64763;48.928;8.474;2023-04-15T04:56:36;6.95;;;3.22;;
76065;SDS011;64763;48.928;8.474;2023-04-15T04:59:03;7.38;;;3.47;;
76065;SDS011;64763;48.928;8.474;2023-04-15T05:01:28;7.72;;;3.58;;
76065;SDS011;64763;48.928;8.474;2023-04-15T05:03:54;7.43;;;3.50;;
76065;SDS011;64763;48.928;8.474;2023-04-15T05:06:19;5.57;;;3.28;;
76065;SDS011;64763;48.928;8.474;2023-04-15T05:08:45;7.47;;;3.90;;
76065;SDS011;64763;48.928;8.474;2023-04-15T05:11:11;7.30;;;3.63;;
76065;SDS011;64763;48.928;8.474;2023-04-15T05:13:37;6.30;;;3.65;;
76065;SDS011;64763;48.928;8.474;2023-04-15T05:16:03;7.18;;;3.38;;
76065;SDS011;64763;48.928;8.474;2023-04-15T05:18:29;6.68;;;3.50;;
76065;SDS011;64763;48.928;8.474;2023-04-15T05:20:55;6.72;;;3.55;;
76065;SDS011;64763;48.928;8.474;2023-04-15T05:23:20;7.75;;;3.80;;
76065;SDS011;64763;48.928;8.474;2023-04-15T05:25:45;6.32;;;3.47;;
76065;SDS011;64763;48.928;8.474;2023-04-15T05:28:11;8.00;;;4.05;;
76065;SDS011;64763;48.928;8.474;2023-04-15T05:30:36;7.30;;;3.72;;
76065;SDS011;64763;48.928;8.474;2023-04-15T05:33:02;7.45;;;3.95;;
76065;SDS011;64763;48.928;8.474;2023-04-15T05:35:28;15.75;;;6.88;;
76065;SDS011;64763;48.928;8.474;2023-04-15T05:37:53;8.70;;;5.00;;
76065;SDS011;64763;48.928;8.474;2023-04-15T05:40:18;11.38;;;5.55;;
76065;SDS011;64763;48.928;8.474;2023-04-15T05:42:44;13.05;;;6.28;;
76065;SDS011;64763;48.928;8.474;2023-04-15T05:45:09;13.48;;;5.80;;
76065;SDS011;64763;48.928;8.474;2023-04-15T05:47:35;14.45;;;6.25;;
76065;SDS011;64763;48.928;8.474;2023-04-15T05:50:01;7.82;;;4.63;;
76065;SDS011;64763;48.928;8.474;2023-04-15T05:52:27;8.60;;;3.10;;
76065;SDS011;64763;48.928;8.474;2023-04-15T05:54:52;4.75;;;2.53;;
76065;SDS011;64763;48.928;8.474;2023-04-15T05:57:17;5.68;;;2.58;;
76065;SDS011;64763;48.928;8.474;2023-04-15T05:59:43;4.75;;;2.42;;
76065;SDS011;64763;48.928;8.474;2023-04-15T06:02:09;4.68;;;2.38;;
76065;SDS011;64763;48.928;8.474;2023-04-15T06:04:37;5.40;;;2.80;;
76065;SDS011;64763;48.928;8.474;2023-04-15T06:07:03;6.78;;;2.97;;
76065;SDS011;64763;48.928;8.474;2023-04-15T06:09:28;6.40;;;3.70;;
76065;SDS011;64763;48.928;8.474;2023-04-15T06:11:54;7.63;;;4.00;;
76065;SDS011;64763;48.928;8.474;2023-04-15T06:14:20;6.82;;;3.70;;
76065;SDS011;64763;48.928;8.474;2023-04-15T06:16:46;7.38;;;3.63;;
76065;SDS011;64763;48.928;8.474;2023-04-15T06:19:11;7.20;;;4.50;;
76065;SDS011;64763;48.928;8.474;2023-04-15T06:21:36;8.50;;;3.80;;
76065;SDS011;64763;48.928;8.474;2023-04-15T06:24:02;6.45;;;4.20;;
76065;SDS011;64763;48.928;8.474;2023-04-15T06:26:27;8.82;;;3.70;;
76065;SDS011;64763;48.928;8.474;2023-04-15T06:28:53;7.18;;;3.80;;
76065;SDS011;64763;48.928;8.474;2023-04-15T06:31:18;6.85;;;3.65;;
76065;SDS011;64763;48.928;8.474;2023-04-15T06:33:44;6.43;;;3.47;;
76065;SDS011;64763;48.928;8.474;2023-04-15T06:36:10;8.70;;;3.92;;
76065;SDS011;64763;48.928;8.474;2023-04-15T06:38:35;10.70;;;5.05;;
76065;SDS011;64763;48.928;8.474;2023-04-15T06:41:01;12.52;;;5.13;;
76065;SDS011;64763;48.928;8.474;2023-04-15T06:43:27;8.35;;;4.60;;
76065;SDS011;64763;48.928;8.474;2023-04-15T06:45:52;8.23;;;4.22;;
76065;SDS011;64763;48.928;8.474;2023-04-15T06:48:18;6.80;;;3.90;;
76065;SDS011;64763;48.928;8.474;2023-04-15T06:50:43;6.57;;;3.75;;
76065;SDS011;64763;48.928;8.474;2023-04-15T06:53:08;7.38;;;3.80;;
76065;SDS011;64763;48.928;8.474;2023-04-15T06:55:34;10.32;;;3.00;;
76065;SDS011;64763;48.928;8.474;2023-04-15T06:57:59;5.18;;;2.53;;
76065;SDS011;64763;48.928;8.474;2023-04-15T07:00:24;3.35;;;1.98;;
76065;SDS011;64763;48.928;8.474;2023-04-15T07:02:50;4.28;;;1.90;;
76065;SDS011;64763;48.928;8.474;2023-04-15T07:05:15;5.30;;;1.92;;
76065;SDS011;64763;48.928;8.474;2023-04-15T07:07:40;4.72;;;2.00;;
76065;SDS011;64763;48.928;8.474;2023-04-15T07:10:06;4.68;;;2.33;;
76065;SDS011;64763;48.928;8.474;2023-04-15T07:12:32;3.80;;;2.20;;
76065;SDS011;64763;48.928;8.474;2023-04-15T07:14:57;3.95;;;2.30;;
76065;SDS011;64763;48.928;8.474;2023-04-15T07:17:22;7.32;;;3.08;;
76065;SDS011;64763;48.928;8.474;2023-04-15T07:19:48;4.07;;;2.38;;
76065;SDS011;64763;48.928;8.474;2023-04-15T07:22:13;6.50;;;2.60;;
76065;SDS011;64763;48.928;8.474;2023-04-15T07:24:39;4.35;;;2.20;;
76065;SDS011;64763;48.928;8.474;2023-04-15T07:27:04;4.38;;;2.15;;
76065;SDS011;64763;48.928;8.474;2023-04-15T07:29:30;4.68;;;2.67;;
76065;SDS011;64763;48.928;8.474;2023-04-15T07:31:55;6.55;;;2.65;;
76065;SDS011;64763;48.928;8.474;2023-04-15T07:34:21;12.20;;;3.58;;
76065;SDS011;64763;48.928;8.474;2023-04-15T07:36:46;7.38;;;2.72;;
76065;SDS011;64763;48.928;8.474;2023-04-15T07:39:16;5.97;;;2.90;;
76065;SDS011;64763;48.928;8.474;2023-04-15T07:41:41;4.68;;;1.85;;
76065;SDS011;64763;48.928;8.474;2023-04-15T07:44:07;5.32;;;2.13;;
76065;SDS011;64763;48.928;8.474;2023-04-15T07:46:33;5.18;;;2.05;;
76065;SDS011;64763;48.928;8.474;2023-04-15T07:48:58;5.70;;;2.30;;
76065;SDS011;64763;48.928;8.474;2023-04-15T07:51:24;3.17;;;2.00;;
76065;SDS011;64763;48.928;8.474;2023-04-15T07:53:49;7.10;;;2.42;;
76065;SDS011;64763;48.928;8.474;2023-04-15T07:56:14;3.83;;;2.10;;
76065;SDS011;64763;48.928;8.474;2023-04-15T07:58:40;4.78;;;2.75;;
76065;SDS011;64763;48.928;8.474;2023-04-15T08:01:06;3.25;;;2.10;;
76065;SDS011;64763;48.928;8.474;2023-04-15T08:03:31;6.88;;;2.78;;
76065;SDS011;64763;48.928;8.474;2023-04-15T08:05:57;7.35;;;2.22;;
76065;SDS011;64763;48.928;8.474;2023-04-15T08:08:23;4.10;;;2.50;;
76065;SDS011;64763;48.928;8.474;2023-04-15T08:10:49;4.07;;;2.42;;
76065;SDS011;64763;48.928;8.474;2023-04-15T08:13:14;5.18;;;2.70;;
76065;SDS011;64763;48.928;8.474;2023-04-15T08:15:40;6.55;;;2.13;;
76065;SDS011;64763;48.928;8.474;2023-04-15T08:18:06;4.80;;;1.92;;
76065;SDS011;64763;48.928;8.474;2023-04-15T08:20:31;5.78;;;3.17;;
76065;SDS011;64763;48.928;8.474;2023-04-15T08:22:57;6.60;;;3.70;;
76065;SDS011;64763;48.928;8.474;2023-04-15T08:25:22;6.30;;;2.10;;
76065;SDS011;64763;48.928;8.474;2023-04-15T08:27:47;5.35;;;2.50;;
76065;SDS011;64763;48.928;8.474;2023-04-15T08:30:13;4.63;;;2.20;;
76065;SDS011;64763;48.928;8.474;2023-04-15T08:32:40;4.55;;;2.13;;
76065;SDS011;64763;48.928;8.474;2023-04-15T08:35:06;5.35;;;2.08;;
76065;SDS011;64763;48.928;8.474;2023-04-15T08:37:32;5.63;;;2.25;;
76065;SDS011;64763;48.928;8.474;2023-04-15T08:39:57;4.07;;;2.65;;
76065;SDS011;64763;48.928;8.474;2023-04-15T08:42:26;5.03;;;2.50;;
76065;SDS011;64763;48.928;8.474;2023-04-15T08:44:53;5.53;;;3.08;;
76065;SDS011;64763;48.928;8.474;2023-04-15T08:47:20;6.97;;;2.25;;
76065;SDS011;64763;48.928;8.474;2023-04-15T08:49:46;4.93;;;2.30;;
76065;SDS011;64763;48.928;8.474;2023-04-15T08:52:17;8.00;;;4.13;;
76065;SDS011;64763;48.928;8.474;2023-04-15T08:54:43;7.18;;;2.90;;
76065;SDS011;64763;48.928;8.474;2023-04-15T08:57:09;3.63;;;2.13;;
76065;SDS011;64763;48.928;8.474;2023-04-15T08:59:34;6.15;;;2.80;;
76065;SDS011;64763;48.928;8.474;2023-04-15T09:02:00;5.47;;;2.55;;
76065;SDS011;64763;48.928;8.474;2023-04-15T09:04:27;4.65;;;2.50;;
76065;SDS011;64763;48.928;8.474;2023-04-15T09:06:52;6.00;;;2.70;;
76065;SDS011;64763;48.928;8.474;2023-04-15T09:09:17;8.38;;;2.97;;
76065;SDS011;64763;48.928;8.474;2023-04-15T09:11:43;4.50;;;2.42;;
76065;SDS011;64763;48.928;8.474;2023-04-15T09:14:08;7.70;;;3.08;;
76065;SDS011;64763;48.928;8.474;2023-04-15T09:19:24;4.32;;;2.08;;
76065;SDS011;64763;48.928;8.474;2023-04-15T09:21:51;4.85;;;2.42;;
76065;SDS011;64763;48.928;8.474;2023-04-15T09:24:17;3.72;;;2.10;;
76065;SDS011;64763;48.928;8.474;2023-04-15T09:26:43;5.30;;;2.40;;
76065;SDS011;64763;48.928;8.474;2023-04-15T09:29:09;4.68;;;2.20;;
76065;SDS011;64763;48.928;8.474;2023-04-15T09:31:37;5.93;;;2.47;;
76065;SDS011;64763;48.928;8.474;2023-04-15T09:34:03;5.32;;;2.95;;
76065;SDS011;64763;48.928;8.474;2023-04-15T09:36:29;5.43;;;2.30;;
76065;SDS011;64763;48.928;8.474;2023-04-15T09:38:55;5.32;;;2.40;;
76065;SDS011;64763;48.928;8.474;2023-04-15T09:41:24;6.88;;;2.50;;
76065;SDS011;64763;48.928;8.474;2023-04-15T09:43:52;6.88;;;2.55;;
76065;SDS011;64763;48.928;8.474;2023-04-15T09:46:18;5.68;;;2.75;;
76065;SDS011;64763;48.928;8.474;2023-04-15T09:48:43;6.47;;;2.50;;
76065;SDS011;64763;48.928;8.474;2023-04-15T09:51:09;7.07;;;2.80;;
76065;SDS011;64763;48.928;8.474;2023-04-15T09:53:34;5.00;;;2.42;;
76065;SDS011;64763;48.928;8.474;2023-04-15T09:56:00;5.82;;;2.85;;
76065;SDS011;64763;48.928;8.474;2023-04-15T09:58:27;4.78;;;2.58;;
76065;SDS011;64763;48.928;8.474;2023-04-15T10:00:54;7.85;;;2.63;;
76065;SDS011;64763;48.928;8.474;2023-04-15T10:03:22;7.90;;;2.90;;
76065;SDS011;64763;48.928;8.474;2023-04-15T10:05:49;6.60;;;2.78;;
76065;SDS011;64763;48.928;8.474;2023-04-15T10:08:19;8.18;;;3.00;;
76065;SDS011;64763;48.928;8.474;2023-04-15T10:10:46;5.32;;;3.28;;
76065;SDS011;64763;48.928;8.474;2023-04-15T10:13:16;9.88;;;4.78;;
76065;SDS011;64763;48.928;8.474;2023-04-15T10:15:43;6.07;;;2.90;;
76065;SDS011;64763;48.928;8.474;2023-04-15T10:18:11;7.10;;;3.42;;
76065;SDS011;64763;48.928;8.474;2023-04-15T10:20:40;6.00;;;3.30;;
76065;SDS011;64763;48.928;8.474;2023-04-15T10:23:06;7.50;;;3.35;;
76065;SDS011;64763;48.928;8.474;2023-04-15T10:25:32;7.97;;;2.97;;
76065;SDS011;64763;48.928;8.474;2023-04-15T10:27:58;8.50;;;3.25;;
76065;SDS011;64763;48.928;8.474;2023-04-15T10:30:24;7.45;;;4.20;;
76065;SDS011;64763;48.928;8.474;2023-04-15T10:32:49;6.68;;;3.40;;
76065;SDS011;64763;48.928;8.474;2023-04-15T10:35:15;5.38;;;3.10;;
76065;SDS011;64763;48.928;8.474;2023-04-15T10:37:41;5.03;;;2.97;;
76065;SDS011;64763;48.928;8.474;2023-04-15T10:42:59;6.32;;;3.33;;
76065;SDS011;64763;48.928;8.474;2023-04-15T10:45:26;5.85;;;3.17;;
76065;SDS011;64763;48.928;8.474;2023-04-15T10:48:02;4.72;;;2.92;;
76065;SDS011;64763;48.928;8.474;2023-04-15T10:50:29;6.43;;;3.17;;
76065;SDS011;64763;48.928;8.474;2023-04-15T10:52:56;7.35;;;3.22;;
76065;SDS011;64763;48.928;8.474;2023-04-15T10:55:23;6.57;;;3.80;;
76065;SDS011;64763;48.928;8.474;2023-04-15T10:57:52;7.38;;;3.10;;
76065;SDS011;64763;48.928;8.474;2023-04-15T11:00:19;4.97;;;2.67;;
76065;SDS011;64763;48.928;8.474;2023-04-15T11:02:53;5.00;;;3.25;;
76065;SDS011;64763;48.928;8.474;2023-04-15T11:05:53;8.65;;;3.92;;
76065;SDS011;64763;48.928;8.474;2023-04-15T11:08:17;5.85;;;3.22;;
76065;SDS011;64763;48.928;8.474;2023-04-15T11:15:34;5.70;;;2.97;;
76065;SDS011;64763;48.928;8.474;2023-04-15T11:18:14;6.10;;;3.72;;
76065;SDS011;64763;48.928;8.474;2023-04-15T11:20:41;6.20;;;3.75;;
76065;SDS011;64763;48.928;8.474;2023-04-15T11:23:09;8.65;;;4.15;;
76065;SDS011;64763;48.928;8.474;2023-04-15T11:25:35;7.15;;;3.28;;
76065;SDS011;64763;48.928;8.474;2023-04-15T11:28:04;5.28;;;3.20;;
76065;SDS011;64763;48.928;8.474;2023-04-15T11:30:30;5.85;;;3.33;;
76065;SDS011;64763;48.928;8.474;2023-04-15T11:32:58;7.63;;;3.55;;
76065;SDS011;64763;48.928;8.474;2023-04-15T11:35:24;8.43;;;3.97;;
76065;SDS011;64763;48.928;8.474;2023-04-15T11:37:49;7.82;;;3.33;;
76065;SDS011;64763;48.928;8.474;2023-04-15T11:40:15;6.72;;;3.38;;
76065;SDS011;64763;48.928;8.474;2023-04-15T11:42:43;7.30;;;3.40;;
76065;SDS011;64763;48.928;8.474;2023-04-15T11:45:12;7.60;;;3.58;;
76065;SDS011;64763;48.928;8.474;2023-04-15T11:47:39;6.95;;;3.58;;
76065;SDS011;64763;48.928;8.474;2023-04-15T11:50:21;5.28;;;3.08;;
76065;SDS011;64763;48.928;8.474;2023-04-15T11:55:23;6.63;;;3.50;;
76065;SDS011;64763;48.928;8.474;2023-04-15T11:57:49;6.22;;;3.20;;
76065;SDS011;64763;48.928;8.474;2023-04-15T12:00:15;5.30;;;3.22;;
76065;SDS011;64763;48.928;8.474;2023-04-15T12:02:41;6.32;;;2.83;;
76065;SDS011;64763;48.928;8.474;2023-04-15T12:05:07;4.90;;;3.10;;
76065;SDS011;64763;48.928;8.474;2023-04-15T12:07:34;6.20;;;3.05;;
76065;SDS011;64763;48.928;8.474;2023-04-15T12:10:25;8.13;;;3.47;;
76065;SDS011;64763;48.928;8.474;2023-04-15T12:12:51;7.20;;;3.25;;
76065;SDS011;64763;48.928;8.474;2023-04-15T12:15:20;6.70;;;3.22;;
76065;SDS011;64763;48.928;8.474;2023-04-15T12:17:46;7.15;;;3.20;;
76065;SDS011;64763;48.928;8.474;2023-04-15T12:20:12;6.85;;;3.15;;
76065;SDS011;64763;48.928;8.474;2023-04-15T12:22:37;6.97;;;3.05;;
76065;SDS011;64763;48.928;8.474;2023-04-15T12:25:03;7.43;;;2.72;;
76065;SDS011;64763;48.928;8.474;2023-04-15T12:27:30;6.85;;;3.00;;
76065;SDS011;64763;48.928;8.474;2023-04-15T12:30:05;8.27;;;3.47;;
76065;SDS011;64763;48.928;8.474;2023-04-15T12:32:35;6.40;;;3.60;;
76065;SDS011;64763;48.928;8.474;2023-04-15T12:35:00;8.52;;;3.40;;
76065;SDS011;64763;48.928;8.474;2023-04-15T12:37:26;6.10;;;3.03;;
76065;SDS011;64763;48.928;8.474;2023-04-15T12:39:51;4.80;;;3.30;;
76065;SDS011;64763;48.928;8.474;2023-04-15T12:42:18;7.03;;;3.35;;
76065;SDS011;64763;48.928;8.474;2023-04-15T12:44:43;5.60;;;3.30;;
76065;SDS011;64763;48.928;8.474;2023-04-15T12:47:09;6.35;;;3.33;;
76065;SDS011;64763;48.928;8.474;2023-04-15T12:49:35;6.93;;;3.17;;
76065;SDS011;64763;48.928;8.474;2023-04-15T12:52:02;5.75;;;3.30;;
76065;SDS011;64763;48.928;8.474;2023-04-15T12:54:28;4.78;;;3.00;;
76065;SDS011;64763;48.928;8.474;2023-04-15T12:56:54;5.35;;;2.95;;
76065;SDS011;64763;48.928;8.474;2023-04-15T12:59:20;4.68;;;2.70;;
76065;SDS011;64763;48.928;8.474;2023-04-15T13:01:46;5.78;;;3.40;;
76065;SDS011;64763;48.928;8.474;2023-04-15T13:04:12;4.90;;;2.40;;
76065;SDS011;64763;48.928;8.474;2023-04-15T13:06:37;3.95;;;2.40;;
76065;SDS011;64763;48.928;8.474;2023-04-15T13:09:03;5.30;;;2.83;;
76065;SDS011;64763;48.928;8.474;2023-04-15T13:11:29;5.00;;;2.28;;
76065;SDS011;64763;48.928;8.474;2023-04-15T13:14:01;5.18;;;2.45;;
76065;SDS011;64763;48.928;8.474;2023-04-15T13:16:30;7.18;;;3.10;;
76065;SDS011;64763;48.928;8.474;2023-04-15T13:18:56;5.38;;;3.00;;
76065;SDS011;64763;48.928;8.474;2023-04-15T13:21:22;5.30;;;3.17;;
76065;SDS011;64763;48.928;8.474;2023-04-15T13:23:48;6.03;;;3.75;;
76065;SDS011;64763;48.928;8.474;2023-04-15T13:26:16;7.70;;;3.28;;
76065;SDS011;64763;48.928;8.474;2023-04-15T13:28:42;5.10;;;2.95;;
76065;SDS011;64763;48.928;8.474;2023-04-15T13:31:07;6.07;;;2.83;;
76065;SDS011;64763;48.928;8.474;2023-04-15T13:33:33;5.53;;;2.95;;
76065;SDS011;64763;48.928;8.474;2023-04-15T13:35:58;4.45;;;2.80;;
76065;SDS011;64763;48.928;8.474;2023-04-15T13:38:23;5.93;;;2.60;;
76065;SDS011;64763;48.928;8.474;2023-04-15T13:40:49;4.65;;;3.22;;
76065;SDS011;64763;48.928;8.474;2023-04-15T13:43:15;3.90;;;2.97;;
76065;SDS011;64763;48.928;8.474;2023-04-15T13:45:41;4.75;;;2.83;;
76065;SDS011;64763;48.928;8.474;2023-04-15T13:48:10;5.78;;;3.05;;
76065;SDS011;64763;48.928;8.474;2023-04-15T13:50:35;6.65;;;3.63;;
76065;SDS011;64763;48.928;8.474;2023-04-15T13:53:01;4.93;;;3.00;;
76065;SDS011;64763;48.928;8.474;2023-04-15T13:55:26;4.75;;;2.92;;
76065;SDS011;64763;48.928;8.474;2023-04-15T13:57:52;4.68;;;2.67;;
76065;SDS011;64763;48.928;8.474;2023-04-15T14:00:17;7.85;;;3.00;;
76065;SDS011;64763;48.928;8.474;2023-04-15T14:02:43;5.50;;;2.70;;
76065;SDS011;64763;48.928;8.474;2023-04-15T14:05:09;5.50;;;3.35;;
76065;SDS011;64763;48.928;8.474;2023-04-15T14:07:34;5.10;;;3.42;;
76065;SDS011;64763;48.928;8.474;2023-04-15T14:10:00;8.68;;;3.90;;
76065;SDS011;64763;48.928;8.474;2023-04-15T14:12:25;7.15;;;3.60;;
76065;SDS011;64763;48.928;8.474;2023-04-15T14:14:51;6.68;;;3.40;;
76065;SDS011;64763;48.928;8.474;2023-04-15T14:17:16;6.13;;;3.65;;
76065;SDS011;64763;48.928;8.474;2023-04-15T14:19:42;6.10;;;3.42;;
76065;SDS011;64763;48.928;8.474;2023-04-15T14:22:07;6.78;;;3.53;;
76065;SDS011;64763;48.928;8.474;2023-04-15T14:24:33;5.88;;;3.28;;
76065;SDS011;64763;48.928;8.474;2023-04-15T14:26:58;6.03;;;3.80;;
76065;SDS011;64763;48.928;8.474;2023-04-15T14:29:23;7.43;;;3.50;;
76065;SDS011;64763;48.928;8.474;2023-04-15T14:31:49;6.40;;;2.95;;
76065;SDS011;64763;48.928;8.474;2023-04-15T14:34:14;6.47;;;3.63;;
76065;SDS011;64763;48.928;8.474;2023-04-15T14:36:40;6.45;;;3.65;;
76065;SDS011;64763;48.928;8.474;2023-04-15T14:39:06;10.82;;;3.72;;
76065;SDS011;64763;48.928;8.474;2023-04-15T14:41:32;10.85;;;3.88;;
76065;SDS011;64763;48.928;8.474;2023-04-15T14:43:58;5.65;;;3.08;;
76065;SDS011;64763;48.928;8.474;2023-04-15T14:46:24;5.10;;;3.17;;
76065;SDS011;64763;48.928;8.474;2023-04-15T14:48:49;6.78;;;2.97;;
76065;SDS011;64763;48.928;8.474;2023-04-15T14:51:15;14.38;;;3.85;;
76065;SDS011;64763;48.928;8.474;2023-04-15T14:53:40;3.95;;;2.67;;
76065;SDS011;64763;48.928;8.474;2023-04-15T14:56:05;11.75;;;3.13;;